createdAt,value
2023-03-24T00:01:19.944Z,1.85
2023-03-24T00:03:48.755Z,2.33
2023-03-24T00:06:15.658Z,2.10
2023-03-24T00:08:43.914Z,2.85
2023-03-24T00:11:12.037Z,2.30
2023-03-24T00:13:39.824Z,1.98
2023-03-24T00:16:09.918Z,2.25
2023-03-24T00:18:37.184Z,2.58
2023-03-24T00:21:05.240Z,2.47
2023-03-24T00:23:33.738Z,2.15
2023-03-24T00:26:06.558Z,2.17
2023-03-24T00:28:37.000Z,1.90
2023-03-24T00:31:06.493Z,2.15
2023-03-24T00:33:34.936Z,1.92
2023-03-24T00:36:03.605Z,2.40
2023-03-24T00:38:30.344Z,2.38
2023-03-24T00:40:57.050Z,2.40
2023-03-24T00:43:24.135Z,2.75
2023-03-24T00:45:52.486Z,2.05
2023-03-24T00:48:20.418Z,2.40
2023-03-24T00:50:48.799Z,2.45
2023-03-24T00:53:15.976Z,2.05
2023-03-24T00:55:46.076Z,2.00
2023-03-24T00:58:21.688Z,2.33
2023-03-24T01:00:58.116Z,2.33
2023-03-24T01:03:27.517Z,3.10
2023-03-24T01:05:57.788Z,2.13
2023-03-24T01:08:25.668Z,1.98
2023-03-24T01:10:53.383Z,2.38
2023-03-24T01:13:26.400Z,2.50
2023-03-24T01:15:54.098Z,2.60
2023-03-24T01:18:23.702Z,2.50
2023-03-24T01:20:50.803Z,2.55
2023-03-24T01:23:23.119Z,2.67
2023-03-24T01:28:24.896Z,2.30
2023-03-24T01:30:53.048Z,2.40
2023-03-24T01:33:20.877Z,2.63
2023-03-24T01:35:47.835Z,2.97
2023-03-24T01:38:15.648Z,2.85
2023-03-24T01:40:45.124Z,2.10
2023-03-24T01:43:21.910Z,2.60
2023-03-24T01:45:55.813Z,2.80
2023-03-24T01:48:27.906Z,3.17
2023-03-24T01:51:11.165Z,2.80
2023-03-24T01:53:41.773Z,5.90
2023-03-24T01:56:09.292Z,3.40
2023-03-24T01:58:39.240Z,3.10
2023-03-24T02:01:06.375Z,2.78
2023-03-24T02:03:38.617Z,2.60
2023-03-24T02:08:44.587Z,2.70
2023-03-24T02:11:11.442Z,3.10
2023-03-24T02:13:38.184Z,2.40
2023-03-24T02:16:46.811Z,2.60
2023-03-24T02:19:37.882Z,2.78
2023-03-24T02:22:38.388Z,2.70
2023-03-24T02:25:11.356Z,2.90
2023-03-24T02:28:17.070Z,2.50
2023-03-24T02:30:43.935Z,2.60
2023-03-24T02:33:32.370Z,2.42
2023-03-24T02:36:37.937Z,2.35
2023-03-24T02:39:22.868Z,1.90
2023-03-24T02:42:15.843Z,2.42
2023-03-24T02:45:11.620Z,2.00
2023-03-24T02:47:53.440Z,2.22
2023-03-24T02:50:31.948Z,1.98
2023-03-24T02:53:32.167Z,2.20
2023-03-24T02:56:22.284Z,3.05
2023-03-24T02:59:21.048Z,2.10
2023-03-24T03:02:00.635Z,2.05
2023-03-24T03:04:37.079Z,1.75
2023-03-24T03:07:10.048Z,1.88
2023-03-24T03:09:42.238Z,1.92
2023-03-24T03:12:11.596Z,2.42
2023-03-24T03:14:54.220Z,2.80
2023-03-24T03:17:33.354Z,1.80
2023-03-24T03:20:06.559Z,2.10
2023-03-24T03:22:59.842Z,2.30
2023-03-24T03:25:32.412Z,2.08
2023-03-24T03:28:03.582Z,2.05
2023-03-24T03:30:40.220Z,2.40
2023-03-24T03:33:18.218Z,1.92
2023-03-24T03:35:52.185Z,1.98
2023-03-24T03:38:34.562Z,1.75
2023-03-24T03:43:31.415Z,2.50
2023-03-24T03:45:59.834Z,2.20
2023-03-24T03:48:27.781Z,2.30
2023-03-24T03:51:10.172Z,2.47
2023-03-24T03:54:02.344Z,2.28
2023-03-24T03:56:31.249Z,2.28
2023-03-24T03:58:58.175Z,2.10
2023-03-24T04:01:27.856Z,2.00
2023-03-24T04:04:53.241Z,2.67
2023-03-24T04:07:31.015Z,2.30
2023-03-24T04:09:57.672Z,2.38
2023-03-24T04:12:43.067Z,2.28
2023-03-24T04:15:26.218Z,2.35
2023-03-24T04:18:11.350Z,1.85
2023-03-24T04:20:46.730Z,2.08
2023-03-24T04:23:41.649Z,2.50
2023-03-24T04:26:34.408Z,2.13
2023-03-24T04:29:04.213Z,1.75
2023-03-24T04:31:41.113Z,2.25
2023-03-24T04:34:20.816Z,2.28
2023-03-24T04:37:02.650Z,1.85
2023-03-24T04:39:31.868Z,2.15
2023-03-24T04:42:02.423Z,2.10
2023-03-24T04:44:32.897Z,1.88
2023-03-24T04:47:02.218Z,2.25
2023-03-24T04:49:36.790Z,2.35
2023-03-24T04:52:03.823Z,1.85
2023-03-24T04:54:30.621Z,1.77
2023-03-24T04:57:01.624Z,1.90
2023-03-24T04:59:29.696Z,2.03
2023-03-24T05:01:56.652Z,2.47
2023-03-24T05:04:26.045Z,3.00
2023-03-24T05:06:52.770Z,3.28
2023-03-24T05:09:21.646Z,3.50
2023-03-24T05:11:48.891Z,3.88
2023-03-24T05:14:16.163Z,3.60
2023-03-24T05:16:42.957Z,4.20
2023-03-24T05:19:10.913Z,3.50
2023-03-24T05:21:37.982Z,4.63
2023-03-24T05:24:05.211Z,5.93
2023-03-24T05:26:33.334Z,8.45
2023-03-24T05:29:00.465Z,7.80
2023-03-24T05:31:27.269Z,5.38
2023-03-24T05:33:53.974Z,3.67
2023-03-24T05:36:20.953Z,3.65
2023-03-24T05:38:47.659Z,3.33
2023-03-24T05:41:14.271Z,3.58
2023-03-24T05:43:40.911Z,3.70
2023-03-24T05:46:07.965Z,3.35
2023-03-24T05:48:34.801Z,3.35
2023-03-24T05:51:01.879Z,3.30
2023-03-24T05:53:28.504Z,3.40
2023-03-24T05:55:55.141Z,3.60
2023-03-24T05:58:21.912Z,3.80
2023-03-24T06:00:48.731Z,3.50
2023-03-24T06:03:17.283Z,3.70
2023-03-24T06:05:46.084Z,3.40
2023-03-24T06:08:13.368Z,3.50
2023-03-24T06:10:40.793Z,3.25
2023-03-24T06:13:09.094Z,3.20
2023-03-24T06:15:36.396Z,3.25
2023-03-24T06:18:05.387Z,3.13
2023-03-24T06:20:32.437Z,2.90
2023-03-24T06:22:59.908Z,2.75
2023-03-24T06:25:28.714Z,2.53
2023-03-24T06:27:55.530Z,2.55
2023-03-24T06:30:22.645Z,2.45
2023-03-24T06:32:50.323Z,2.47
2023-03-24T06:35:17.443Z,2.70
2023-03-24T06:37:44.911Z,2.95
2023-03-24T06:40:15.264Z,3.15
2023-03-24T06:42:42.082Z,3.08
2023-03-24T06:45:09.613Z,3.63
2023-03-24T06:47:36.890Z,3.40
2023-03-24T06:50:05.570Z,3.20
2023-03-24T06:52:32.343Z,3.40
2023-03-24T06:54:59.030Z,3.05
2023-03-24T06:57:26.059Z,3.60
2023-03-24T06:59:53.328Z,3.45
2023-03-24T07:02:20.474Z,3.20
2023-03-24T07:04:47.765Z,3.17
2023-03-24T07:07:44.852Z,3.65
2023-03-24T07:10:01.650Z,3.58
2023-03-24T07:12:28.495Z,3.55
2023-03-24T07:14:56.004Z,2.67
2023-03-24T07:17:24.306Z,3.22
2023-03-24T07:19:51.975Z,3.60
2023-03-24T07:22:18.639Z,2.88
2023-03-24T07:24:45.344Z,2.53
2023-03-24T07:27:11.968Z,2.70
2023-03-24T07:29:38.613Z,2.13
2023-03-24T07:32:07.835Z,2.28
2023-03-24T07:34:36.928Z,2.55
2023-03-24T07:37:03.565Z,2.03
2023-03-24T07:39:31.046Z,2.00
2023-03-24T07:41:57.728Z,2.20
2023-03-24T07:44:25.090Z,2.10
2023-03-24T07:46:51.792Z,2.20
2023-03-24T07:49:20.075Z,1.90
2023-03-24T07:51:47.019Z,1.77
2023-03-24T07:54:13.730Z,2.25
2023-03-24T07:56:40.606Z,3.13
2023-03-24T07:59:09.576Z,2.63
2023-03-24T08:01:37.536Z,1.90
2023-03-24T08:04:06.645Z,1.60
2023-03-24T08:06:34.794Z,2.53
2023-03-24T08:09:01.487Z,1.52
2023-03-24T08:11:28.381Z,1.35
2023-03-24T08:13:55.118Z,1.73
2023-03-24T08:16:22.319Z,1.40
2023-03-24T08:18:50.647Z,1.45
2023-03-24T08:21:17.388Z,1.50
2023-03-24T08:23:44.267Z,1.15
2023-03-24T08:26:10.929Z,1.20
2023-03-24T08:28:38.452Z,1.08
2023-03-24T08:31:05.511Z,1.20
2023-03-24T08:33:32.274Z,1.30
2023-03-24T08:36:00.787Z,1.25
2023-03-24T08:38:31.447Z,1.00
2023-03-24T08:41:06.565Z,1.05
2023-03-24T08:43:35.456Z,0.88
2023-03-24T08:46:02.757Z,0.77
2023-03-24T08:48:30.594Z,0.88
2023-03-24T08:50:57.254Z,0.80
2023-03-24T08:53:24.137Z,0.70
2023-03-24T08:55:51.431Z,1.40
2023-03-24T08:58:21.955Z,1.15
2023-03-24T09:00:49.412Z,0.90
2023-03-24T09:03:22.126Z,0.88
2023-03-24T09:05:49.601Z,1.00
2023-03-24T09:08:18.735Z,0.95
2023-03-24T09:10:49.614Z,1.38
2023-03-24T09:13:16.492Z,0.88
2023-03-24T09:15:54.723Z,1.05
2023-03-24T09:18:22.260Z,0.98
2023-03-24T09:20:49.838Z,0.80
2023-03-24T09:23:16.954Z,1.00
2023-03-24T09:25:43.802Z,1.00
2023-03-24T09:28:10.753Z,1.10
2023-03-24T09:30:37.641Z,0.93
2023-03-24T09:33:04.407Z,1.10
2023-03-24T09:35:31.412Z,0.80
2023-03-24T09:37:58.283Z,1.00
2023-03-24T09:40:31.550Z,1.25
2023-03-24T09:43:08.841Z,1.00
2023-03-24T09:46:09.968Z,1.00
2023-03-24T09:48:39.696Z,0.90
2023-03-24T09:51:26.015Z,0.90
2023-03-24T09:54:08.134Z,1.02
2023-03-24T09:56:38.168Z,1.15
2023-03-24T09:59:07.620Z,0.80
2023-03-24T10:01:36.342Z,1.10
2023-03-24T10:04:04.486Z,0.80
2023-03-24T10:06:40.044Z,0.70
2023-03-24T10:09:36.207Z,1.10
2023-03-24T10:12:21.306Z,0.70
2023-03-24T10:15:09.382Z,0.70
2023-03-24T10:18:00.490Z,0.60
2023-03-24T10:20:47.451Z,0.80
2023-03-24T10:23:41.868Z,0.80
2023-03-24T10:26:53.607Z,1.00
2023-03-24T10:29:33.843Z,0.55
2023-03-24T10:32:29.765Z,0.70
2023-03-24T10:35:00.223Z,0.70
2023-03-24T10:37:30.549Z,0.55
2023-03-24T10:39:57.299Z,0.80
2023-03-24T10:42:31.740Z,0.80
2023-03-24T10:44:58.699Z,1.00
2023-03-24T10:47:27.921Z,0.60
2023-03-24T10:49:59.303Z,0.80
2023-03-24T10:52:26.846Z,0.70
2023-03-24T10:54:58.523Z,0.93
2023-03-24T10:57:27.080Z,0.60
2023-03-24T11:00:14.706Z,0.70
2023-03-24T11:02:42.704Z,0.60
2023-03-24T11:05:18.930Z,0.77
2023-03-24T11:07:48.844Z,0.55
2023-03-24T11:10:23.792Z,0.68
2023-03-24T11:12:59.421Z,0.50
2023-03-24T11:15:32.180Z,0.65
2023-03-24T11:18:04.219Z,0.80
2023-03-24T11:23:02.078Z,1.15
2023-03-24T11:25:34.040Z,0.80
2023-03-24T11:28:22.817Z,0.63
2023-03-24T11:30:54.919Z,0.47
2023-03-24T11:33:35.161Z,0.50
2023-03-24T11:36:35.896Z,0.50
2023-03-24T11:39:24.074Z,0.65
2023-03-24T11:42:12.127Z,0.43
2023-03-24T11:44:38.938Z,0.55
2023-03-24T11:47:24.790Z,0.40
2023-03-24T11:49:54.633Z,0.57
2023-03-24T11:52:27.795Z,0.50
2023-03-24T11:54:55.320Z,0.47
2023-03-24T11:57:48.467Z,0.43
2023-03-24T12:00:37.840Z,0.52
2023-03-24T12:03:10.862Z,0.50
2023-03-24T12:05:45.367Z,0.50
2023-03-24T12:08:38.724Z,0.60
2023-03-24T12:11:20.510Z,0.70
2023-03-24T12:13:49.954Z,0.40
2023-03-24T12:16:34.693Z,0.40
2023-03-24T12:19:29.609Z,0.40
2023-03-24T12:22:15.040Z,0.40
2023-03-24T12:25:16.309Z,0.50
2023-03-24T12:27:54.828Z,0.40
2023-03-24T12:30:49.154Z,0.50
2023-03-24T12:33:45.330Z,0.43
2023-03-24T12:36:19.085Z,0.40
2023-03-24T12:38:54.303Z,0.50
2023-03-24T12:41:39.055Z,0.50
2023-03-24T12:44:47.071Z,0.40
2023-03-24T12:47:31.611Z,0.52
2023-03-24T12:50:01.138Z,0.32
2023-03-24T12:53:05.048Z,0.30
2023-03-24T12:55:43.447Z,1.95
2023-03-24T12:58:10.326Z,0.35
2023-03-24T13:00:42.558Z,0.47
2023-03-24T13:03:18.953Z,0.63
2023-03-24T13:05:51.156Z,0.90
2023-03-24T13:08:29.261Z,1.10
2023-03-24T13:11:05.357Z,1.10
2023-03-24T13:13:37.447Z,0.98
2023-03-24T13:18:40.343Z,1.35
2023-03-24T13:21:15.045Z,1.10
2023-03-24T13:24:00.350Z,0.98
2023-03-24T13:26:42.741Z,0.88
2023-03-24T13:29:24.364Z,0.95
2023-03-24T13:32:10.359Z,1.00
2023-03-24T13:34:48.878Z,0.88
2023-03-24T13:37:29.838Z,1.00
2023-03-24T13:39:59.983Z,1.05
2023-03-24T13:42:59.782Z,1.25
2023-03-24T13:45:49.805Z,1.30
2023-03-24T13:48:37.863Z,1.73
2023-03-24T13:51:25.325Z,1.23
2023-03-24T13:53:59.698Z,1.02
2023-03-24T13:56:48.034Z,0.73
2023-03-24T13:59:24.666Z,0.77
2023-03-24T14:02:09.790Z,0.55
2023-03-24T14:05:12.591Z,1.05
2023-03-24T14:10:49.234Z,0.80
2023-03-24T14:13:16.189Z,1.83
2023-03-24T14:15:53.392Z,3.20
2023-03-24T14:18:23.593Z,2.40
2023-03-24T14:20:56.631Z,0.63
2023-03-24T14:23:39.237Z,0.88
2023-03-24T14:26:21.400Z,1.80
2023-03-24T14:28:50.386Z,0.80
2023-03-24T14:31:19.561Z,1.10
2023-03-24T14:33:52.667Z,0.60
2023-03-24T14:36:40.131Z,0.70
2023-03-24T14:39:27.077Z,1.00
2023-03-24T14:41:53.981Z,2.15
2023-03-24T14:44:46.143Z,2.20
2023-03-24T14:47:29.764Z,1.30
2023-03-24T14:49:58.349Z,2.42
2023-03-24T14:52:34.151Z,2.20
2023-03-24T14:55:03.421Z,0.85
2023-03-24T14:57:37.829Z,1.00
2023-03-24T15:00:08.805Z,2.40
2023-03-24T15:02:39.515Z,1.10
2023-03-24T15:05:20.506Z,0.98
2023-03-24T15:08:12.247Z,1.20
2023-03-24T15:10:56.316Z,0.90
2023-03-24T15:13:34.673Z,0.88
2023-03-24T15:16:24.047Z,1.05
2023-03-24T15:19:01.314Z,0.85
2023-03-24T15:21:58.276Z,1.00
2023-03-24T15:24:35.767Z,1.00
2023-03-24T15:27:08.460Z,1.40
2023-03-24T15:29:36.826Z,1.10
2023-03-24T15:32:04.775Z,1.20
2023-03-24T15:34:35.119Z,1.20
2023-03-24T15:37:04.175Z,0.93
2023-03-24T15:39:39.505Z,1.05
2023-03-24T15:42:09.070Z,1.00
2023-03-24T15:44:39.313Z,0.95
2023-03-24T15:47:16.157Z,0.95
2023-03-24T15:50:28.679Z,1.27
2023-03-24T15:53:04.393Z,1.80
2023-03-24T15:55:36.647Z,1.33
2023-03-24T15:58:24.864Z,1.33
2023-03-24T16:00:59.826Z,1.40
2023-03-24T16:03:27.727Z,2.00
2023-03-24T16:05:56.410Z,1.25
2023-03-24T16:08:40.883Z,1.23
2023-03-24T16:11:14.542Z,1.17
2023-03-24T16:13:44.709Z,1.40
2023-03-24T16:16:14.277Z,0.82
2023-03-24T16:18:47.234Z,1.30
2023-03-24T16:21:20.426Z,1.40
2023-03-24T16:23:48.823Z,0.93
2023-03-24T16:26:22.534Z,1.00
2023-03-24T16:28:50.052Z,0.77
2023-03-24T16:31:19.480Z,1.10
2023-03-24T16:33:46.818Z,1.42
2023-03-24T16:36:13.769Z,1.58
2023-03-24T16:38:40.596Z,1.55
2023-03-24T16:41:10.946Z,1.50
2023-03-24T16:43:37.929Z,2.20
2023-03-24T16:46:05.763Z,1.17
2023-03-24T16:48:32.539Z,0.95
2023-03-24T16:50:59.295Z,3.25
2023-03-24T16:53:26.072Z,4.05
2023-03-24T16:55:52.942Z,3.17
2023-03-24T16:58:19.664Z,3.83
2023-03-24T17:00:48.963Z,11.70
2023-03-24T17:03:18.001Z,6.68
2023-03-24T17:05:51.119Z,4.70
2023-03-24T17:08:19.151Z,1.55
2023-03-24T17:10:49.169Z,2.88
2023-03-24T17:13:24.758Z,2.80
2023-03-24T17:15:52.336Z,3.20
2023-03-24T17:18:19.765Z,2.40
2023-03-24T17:20:46.975Z,3.05
2023-03-24T17:23:18.468Z,3.03
2023-03-24T17:25:45.650Z,1.40
2023-03-24T17:28:16.855Z,1.40
2023-03-24T17:30:44.082Z,4.28
2023-03-24T17:33:14.977Z,1.50
2023-03-24T17:35:44.575Z,1.60
2023-03-24T17:38:14.533Z,2.72
2023-03-24T17:40:41.726Z,4.47
2023-03-24T17:43:08.622Z,5.22
2023-03-24T17:45:35.452Z,7.57
2023-03-24T17:48:02.217Z,3.38
2023-03-24T17:50:30.657Z,4.97
2023-03-24T17:52:57.362Z,3.10
2023-03-24T17:55:23.984Z,3.65
2023-03-24T17:57:50.790Z,3.90
2023-03-24T18:00:17.781Z,2.20
2023-03-24T18:02:44.996Z,2.20
2023-03-24T18:05:12.522Z,3.00
2023-03-24T18:07:40.240Z,1.95
2023-03-24T18:10:08.178Z,2.28
2023-03-24T18:12:36.024Z,2.67
2023-03-24T18:15:04.680Z,2.90
2023-03-24T18:17:31.533Z,2.90
2023-03-24T18:19:59.947Z,2.40
2023-03-24T18:22:27.259Z,2.67
2023-03-24T18:24:54.643Z,3.67
2023-03-24T18:27:21.373Z,2.35
2023-03-24T18:29:48.045Z,3.88
2023-03-24T18:32:14.957Z,3.15
2023-03-24T18:34:44.736Z,3.22
2023-03-24T18:37:14.398Z,3.45
2023-03-24T18:39:41.446Z,4.50
2023-03-24T18:42:08.176Z,4.15
2023-03-24T18:44:35.209Z,1.40
2023-03-24T18:47:01.897Z,3.08
2023-03-24T18:49:28.780Z,1.48
2023-03-24T18:51:55.408Z,1.60
2023-03-24T18:54:22.290Z,1.95
2023-03-24T18:56:49.019Z,1.60
2023-03-24T18:59:16.095Z,1.75
2023-03-24T19:01:47.070Z,2.20
2023-03-24T19:04:14.337Z,2.40
2023-03-24T19:06:42.436Z,1.77
2023-03-24T19:09:11.016Z,1.90
2023-03-24T19:11:37.858Z,1.77
2023-03-24T19:14:04.560Z,2.10
2023-03-24T19:16:31.752Z,1.60
2023-03-24T19:18:58.534Z,1.77
2023-03-24T19:21:25.507Z,1.70
2023-03-24T19:23:53.099Z,1.50
2023-03-24T19:26:20.569Z,1.52
2023-03-24T19:28:47.482Z,1.25
2023-03-24T19:31:17.226Z,1.48
2023-03-24T19:33:45.330Z,1.75
2023-03-24T19:36:12.352Z,2.35
2023-03-24T19:38:39.489Z,1.88
2023-03-24T19:41:08.274Z,1.52
2023-03-24T19:43:36.636Z,1.42
2023-03-24T19:46:05.083Z,1.77
2023-03-24T19:48:32.073Z,1.38
2023-03-24T19:50:59.033Z,1.52
2023-03-24T19:53:26.605Z,1.60
2023-03-24T19:55:57.209Z,1.40
2023-03-24T19:58:24.626Z,1.27
2023-03-24T20:00:53.226Z,2.00
2023-03-24T20:03:20.350Z,1.42
2023-03-24T20:05:47.563Z,1.50
2023-03-24T20:08:14.761Z,1.95
2023-03-24T20:10:41.522Z,1.92
2023-03-24T20:13:09.093Z,1.65
2023-03-24T20:15:35.975Z,1.63
2023-03-24T20:18:02.984Z,1.70
2023-03-24T20:20:29.759Z,2.15
2023-03-24T20:22:56.537Z,3.15
2023-03-24T20:25:24.008Z,1.48
2023-03-24T20:27:50.716Z,1.63
2023-03-24T20:30:18.672Z,1.60
2023-03-24T20:32:45.464Z,2.20
2023-03-24T20:35:12.333Z,2.85
2023-03-24T20:37:39.239Z,3.05
2023-03-24T20:40:09.414Z,1.90
2023-03-24T20:42:36.799Z,2.13
2023-03-24T20:45:04.677Z,2.03
2023-03-24T20:47:31.468Z,2.03
2023-03-24T20:49:58.238Z,1.95
2023-03-24T20:52:25.824Z,1.55
2023-03-24T20:54:53.099Z,1.65
2023-03-24T20:57:20.172Z,1.38
2023-03-24T20:59:48.216Z,1.60
2023-03-24T21:02:15.643Z,1.42
2023-03-24T21:04:42.713Z,1.40
2023-03-24T21:07:09.570Z,2.03
2023-03-24T21:09:36.551Z,1.60
2023-03-24T21:12:03.941Z,1.58
2023-03-24T21:14:30.665Z,1.65
2023-03-24T21:16:57.480Z,1.35
2023-03-24T21:19:24.791Z,1.33
2023-03-24T21:21:51.804Z,1.30
2023-03-24T21:24:18.545Z,2.20
2023-03-24T21:26:49.482Z,3.70
2023-03-24T21:29:16.350Z,3.28
2023-03-24T21:31:43.464Z,2.75
2023-03-24T21:34:11.279Z,2.92
2023-03-24T21:36:38.448Z,3.25
2023-03-24T21:39:07.661Z,1.58
2023-03-24T21:41:34.902Z,2.90
2023-03-24T21:44:01.652Z,2.28
2023-03-24T21:46:28.333Z,3.38
2023-03-24T21:48:59.242Z,3.25
2023-03-24T21:51:36.439Z,1.92
2023-03-24T21:54:09.608Z,2.00
2023-03-24T21:56:37.968Z,1.40
2023-03-24T21:59:05.055Z,1.48
2023-03-24T22:01:33.956Z,1.40
2023-03-24T22:04:00.898Z,2.75
2023-03-24T22:06:28.695Z,1.08
2023-03-24T22:08:58.293Z,1.40
2023-03-24T22:11:25.772Z,1.80
2023-03-24T22:13:52.960Z,3.97
2023-03-24T22:16:19.676Z,2.92
2023-03-24T22:18:47.299Z,2.78
2023-03-24T22:21:14.315Z,4.80
2023-03-24T22:23:42.647Z,2.63
2023-03-24T22:26:14.931Z,2.45
2023-03-24T22:28:42.410Z,3.20
2023-03-24T22:31:11.721Z,1.65
2023-03-24T22:33:38.732Z,1.50
2023-03-24T22:36:06.640Z,1.70
2023-03-24T22:38:34.317Z,1.30
2023-03-24T22:41:06.863Z,1.20
2023-03-24T22:43:35.303Z,0.95
2023-03-24T22:46:02.386Z,1.23
2023-03-24T22:48:29.166Z,0.80
2023-03-24T22:50:56.075Z,0.75
2023-03-24T22:53:22.785Z,0.68
2023-03-24T22:55:50.045Z,0.88
2023-03-24T22:58:17.103Z,0.60
2023-03-24T23:00:46.854Z,1.13
2023-03-24T23:03:13.629Z,1.20
2023-03-24T23:05:45.821Z,0.70
2023-03-24T23:08:14.969Z,1.40
2023-03-24T23:10:44.277Z,0.73
2023-03-24T23:13:12.017Z,0.85
2023-03-24T23:15:40.149Z,0.88
2023-03-24T23:18:07.131Z,0.80
2023-03-24T23:20:34.240Z,0.65
2023-03-24T23:23:01.402Z,1.23
2023-03-24T23:25:31.098Z,0.85
2023-03-24T23:27:58.655Z,1.30
2023-03-24T23:30:25.516Z,0.82
2023-03-24T23:32:52.531Z,0.70
2023-03-24T23:35:19.759Z,0.90
2023-03-24T23:37:46.595Z,1.00
2023-03-24T23:40:14.926Z,0.82
2023-03-24T23:42:44.241Z,1.35
2023-03-24T23:45:14.556Z,0.80
2023-03-24T23:47:43.085Z,1.08
2023-03-24T23:50:10.536Z,1.00
2023-03-24T23:52:37.483Z,1.20
2023-03-24T23:55:04.879Z,0.70
2023-03-24T23:57:31.641Z,1.52
2023-03-24T23:59:59.897Z,0.73
